Portada
METAR-TAF:

METAR-TAF

Aeroports :

Hargeisa, Somàlia

latitud: 09-30N, longitud: 044-05E, altitud: 1326 m

Observació

L'informe es va fer fa 9 hores i 11 minuts, a les 11:00 UTC
Vent 5 kt del Nord
Temperatura 30°C
Humitat 46%
Pressió 1016 hPa
Visibilitat 10 km o més
Núvols disperses a una alçada de 3000 ft

METAR: HCMH 161100Z 35005KT 9999 SCT030 30/17 Q1016

Hora: 23:11 (20:11 UTC)


TAF: manca

Observacions i pronòstics meteorològics de més de 4000 aeroports (METAR i TAF).

Les estacions disponibles són els punts grocs i vermells al mapa.

Posi el ratolí al punt desitjat per veure el nom de l'estació.

Feu clic per veure les observacions i els pronòstics meteorològics.

Per canviar el mapa: feu clic els botons verds amb una creu de color negre per apropar; al botó verd amb un guió per allunyar la imatge; o en les fletxes verdes per a mapes adjacents.


METAR-TAF: